Time;durP1;ratioP1;P1;durP2;ratioP2;P2;SDS_P1;SDS_P2;PMS_P1;PMS_P2;Temp;Humidity;BMP_temperature;BMP_pressure;BME280_temperature;BME280_humidity;BME280_pressure;Samples;Min_cycle;Max_cycle;Signal;HPM_P1;HPM_P2
2022/07/24 00:01:01;;;;;;;7.40;5.30;;;16.50;39.90;;;;;;5115061;28;20273;-63
2022/07/24 00:03:28;;;;;;;7.33;4.57;;;16.50;42.70;;;;;;5115488;27;20200;-63
2022/07/24 00:05:55;;;;;;;6.47;4.63;;;16.50;43.60;;;;;;5114758;28;20232;-63
2022/07/24 00:08:22;;;;;;;5.70;4.97;;;16.50;45.50;;;;;;5115273;28;20203;-63
2022/07/24 00:10:49;;;;;;;6.20;5.03;;;16.40;48.40;;;;;;5115393;28;20235;-63
2022/07/24 00:13:17;;;;;;;6.00;4.93;;;16.40;51.60;;;;;;5114862;28;20211;-63
2022/07/24 00:15:44;;;;;;;7.20;4.50;;;16.40;52.30;;;;;;5115214;28;20203;-63
2022/07/24 00:18:11;;;;;;;8.93;5.43;;;16.40;49.20;;;;;;5114284;28;20277;-64
2022/07/24 00:20:38;;;;;;;6.17;4.97;;;16.40;50.20;;;;;;5114937;28;20230;-64
2022/07/24 00:23:04;;;;;;;6.93;4.77;;;16.40;51.60;;;;;;5114718;28;20204;-63
2022/07/24 00:25:31;;;;;;;7.40;4.33;;;16.30;50.40;;;;;;5114795;28;20199;-63
2022/07/24 00:27:58;;;;;;;8.10;4.90;;;16.30;49.10;;;;;;5114719;28;20200;-64
2022/07/24 00:30:26;;;;;;;5.43;4.40;;;16.30;46.30;;;;;;5114644;28;20231;-64
2022/07/24 00:32:53;;;;;;;5.03;4.30;;;16.40;43.20;;;;;;5114990;28;20207;-63
2022/07/24 00:35:20;;;;;;;5.60;4.00;;;16.40;40.10;;;;;;5114450;28;20607;-63
2022/07/24 00:37:47;;;;;;;7.93;3.93;;;16.40;34.10;;;;;;5114334;28;20199;-63
2022/07/24 00:40:15;;;;;;;5.60;4.10;;;16.40;29.60;;;;;;5114769;28;20314;-64
2022/07/24 00:42:42;;;;;;;6.23;4.50;;;16.40;25.70;;;;;;5114714;28;20207;-63
2022/07/24 00:45:10;;;;;;;5.97;4.40;;;16.50;21.70;;;;;;5114534;28;20256;-63
2022/07/24 00:47:38;;;;;;;5.87;4.20;;;16.50;21.50;;;;;;5114269;28;20224;-63
2022/07/24 00:50:06;;;;;;;7.23;4.70;;;16.50;15.20;;;;;;5114260;28;20228;-63
2022/07/24 00:52:32;;;;;;;4.20;3.80;;;16.50;17.30;;;;;;5114151;28;20207;-63
2022/07/24 00:55:00;;;;;;;7.13;3.80;;;16.40;14.10;;;;;;5114761;28;20206;-63
2022/07/24 00:57:26;;;;;;;5.30;4.30;;;16.50;12.20;;;;;;5113799;28;20225;-63
2022/07/24 00:59:53;;;;;;;6.53;4.27;;;16.50;16.30;;;;;;5114298;28;20293;-64
2022/07/24 01:02:20;;;;;;;4.70;4.20;;;16.50;18.40;;;;;;5114059;28;20212;-64
2022/07/24 01:04:48;;;;;;;5.43;4.33;;;16.40;19.20;;;;;;5113979;28;20203;-63
2022/07/24 01:07:15;;;;;;;5.07;4.20;;;16.40;18.50;;;;;;5113725;28;20257;-63
2022/07/24 01:09:42;;;;;;;4.73;4.33;;;16.40;17.50;;;;;;5114086;28;20224;-63
2022/07/24 01:12:09;;;;;;;7.37;4.80;;;16.40;15.40;;;;;;5114029;28;20265;-63
2022/07/24 01:14:36;;;;;;;6.17;4.70;;;16.40;14.50;;;;;;5113971;28;20200;-63
2022/07/24 01:17:03;;;;;;;6.50;4.47;;;16.30;16.70;;;;;;5113454;28;20204;-62
2022/07/24 01:19:29;;;;;;;6.13;4.47;;;16.40;12.80;;;;;;5113483;28;20239;-63
2022/07/24 01:21:57;;;;;;;6.03;4.30;;;16.40;11.40;;;;;;5113984;28;20265;-63
2022/07/24 01:24:24;;;;;;;5.07;4.40;;;16.30;10.10;;;;;;5113224;28;20203;-63
2022/07/24 01:26:51;;;;;;;5.63;4.77;;;16.30;10.60;;;;;;5113497;28;20231;-61
2022/07/24 01:29:17;;;;;;;6.80;4.60;;;16.30;9.00;;;;;;5113603;28;20257;-62
2022/07/24 01:31:44;;;;;;;5.30;4.70;;;16.30;9.30;;;;;;5113319;28;20211;-63
2022/07/24 01:34:12;;;;;;;5.70;4.10;;;16.30;7.00;;;;;;5113805;28;20203;-62
2022/07/24 01:36:38;;;;;;;5.57;4.23;;;16.40;7.60;;;;;;5113089;27;20238;-63
2022/07/24 01:39:06;;;;;;;5.27;4.23;;;16.30;8.40;;;;;;5113432;28;20224;-63
2022/07/24 01:41:33;;;;;;;7.13;4.40;;;16.30;9.10;;;;;;5113344;28;20207;-63
2022/07/24 01:44:00;;;;;;;7.77;4.70;;;16.30;7.60;;;;;;5113365;28;20203;-63
2022/07/24 01:46:26;;;;;;;5.30;4.73;;;16.30;8.90;;;;;;5112874;28;20943;-63
2022/07/24 01:48:53;;;;;;;6.60;4.40;;;16.30;6.00;;;;;;5113264;28;20207;-63
2022/07/24 01:51:20;;;;;;;5.93;4.70;;;16.30;5.80;;;;;;5113360;28;20204;-62
2022/07/24 01:53:46;;;;;;;5.47;4.60;;;16.30;5.50;;;;;;5113175;28;20615;-63
2022/07/24 01:56:14;;;;;;;6.07;4.83;;;16.30;6.00;;;;;;5112784;28;20206;-62
2022/07/24 01:58:41;;;;;;;5.37;4.53;;;16.30;3.90;;;;;;5112876;28;20556;-63
2022/07/24 02:01:08;;;;;;;5.93;4.80;;;16.30;5.50;;;;;;5113086;28;21007;-63
2022/07/24 02:03:34;;;;;;;8.07;4.60;;;16.30;4.00;;;;;;5113239;28;20200;-63
2022/07/24 02:06:01;;;;;;;5.97;4.83;;;16.30;3.50;;;;;;5112525;28;20204;-63
2022/07/24 02:08:28;;;;;;;4.90;4.40;;;16.30;3.10;;;;;;5112965;28;20200;-64
2022/07/24 02:10:54;;;;;;;6.50;4.50;;;16.20;1.00;;;;;;5112729;28;20253;-64
2022/07/24 02:13:22;;;;;;;7.03;5.10;;;16.30;1.00;;;;;;5112693;28;20252;-63
2022/07/24 02:15:49;;;;;;;6.23;5.00;;;16.30;1.00;;;;;;5112870;28;20260;-63
2022/07/24 02:18:16;;;;;;;6.03;5.07;;;16.30;1.00;;;;;;5112642;28;20627;-63
2022/07/24 02:20:42;;;;;;;5.80;4.50;;;16.30;1.00;;;;;;5112809;28;20284;-63
2022/07/24 02:23:09;;;;;;;5.00;4.47;;;16.30;1.00;;;;;;5112559;28;20207;-63
2022/07/24 02:25:35;;;;;;;6.63;5.07;;;16.30;1.00;;;;;;5112302;28;20208;-63
2022/07/24 02:28:02;;;;;;;7.10;4.63;;;16.40;1.00;;;;;;5111963;28;20227;-63
2022/07/24 02:30:30;;;;;;;6.67;5.10;;;16.40;1.00;;;;;;5112750;28;20231;-62
2022/07/24 02:32:57;;;;;;;6.93;5.07;;;16.40;1.00;;;;;;5112441;28;20253;-63
2022/07/24 02:35:24;;;;;;;5.53;4.40;;;16.40;1.00;;;;;;5112397;28;20212;-63
2022/07/24 02:37:50;;;;;;;6.63;4.60;;;16.40;1.00;;;;;;5111389;28;20199;-63
2022/07/24 02:40:17;;;;;;;8.17;4.83;;;16.40;1.00;;;;;;5112425;28;20227;-63
2022/07/24 02:42:43;;;;;;;7.83;4.77;;;16.40;1.00;;;;;;5112411;28;20260;-63
2022/07/24 02:45:11;;;;;;;7.37;4.90;;;16.40;1.00;;;;;;5112109;28;20229;-65
2022/07/24 02:47:48;;;;;;;7.53;4.70;;;16.40;1.00;;;;;;5111984;28;20264;-63
2022/07/24 02:50:14;;;;;;;4.80;4.40;;;16.30;1.00;;;;;;5112163;28;20229;-63
2022/07/24 02:52:41;;;;;;;7.00;4.80;;;16.40;1.00;;;;;;5112408;28;20203;-63
2022/07/24 02:55:08;;;;;;;8.10;4.83;;;16.30;1.00;;;;;;5112022;28;20207;-63
2022/07/24 02:57:35;;;;;;;6.67;5.03;;;16.40;1.00;;;;;;5112011;28;20199;-63
2022/07/24 03:00:02;;;;;;;7.23;4.87;;;16.40;1.00;;;;;;5111607;28;20709;-63
2022/07/24 03:02:29;;;;;;;7.13;4.67;;;16.40;1.00;;;;;;5112336;28;20208;-63
2022/07/24 03:04:57;;;;;;;6.27;4.77;;;16.40;1.00;;;;;;5112325;28;20211;-63
2022/07/24 03:07:23;;;;;;;6.90;5.33;;;16.30;1.00;;;;;;5111578;28;20220;-63
2022/07/24 03:09:50;;;;;;;7.67;5.33;;;16.40;1.00;;;;;;5112043;28;20223;-63
2022/07/24 03:12:16;;;;;;;5.23;4.70;;;16.40;1.00;;;;;;5111953;28;20207;-63
2022/07/24 03:14:43;;;;;;;9.00;4.80;;;16.40;1.00;;;;;;5112251;28;20608;-63
2022/07/24 03:17:10;;;;;;;9.87;4.90;;;16.40;1.00;;;;;;5111658;28;20601;-63
2022/07/24 03:19:36;;;;;;;6.57;4.73;;;16.40;1.00;;;;;;5111770;28;20721;-63
2022/07/24 03:22:04;;;;;;;5.80;4.57;;;16.40;1.00;;;;;;5112017;28;20207;-64
2022/07/24 03:24:31;;;;;;;5.37;4.77;;;16.40;1.00;;;;;;5112039;28;20209;-63
2022/07/24 03:26:59;;;;;;;9.20;5.27;;;16.40;1.00;;;;;;5111785;28;20314;-64
2022/07/24 03:29:25;;;;;;;5.57;5.07;;;16.40;1.00;;;;;;5111535;28;20228;-64
2022/07/24 03:31:53;;;;;;;6.57;4.53;;;16.40;1.00;;;;;;5112067;28;20203;-63
2022/07/24 03:34:20;;;;;;;8.47;5.30;;;16.40;1.00;;;;;;5111614;28;20211;-63
2022/07/24 03:36:46;;;;;;;5.30;4.80;;;16.40;1.00;;;;;;5111470;28;20204;-63
2022/07/24 03:39:14;;;;;;;6.27;4.70;;;16.40;1.00;;;;;;5111688;28;20280;-63
2022/07/24 03:41:41;;;;;;;5.17;4.70;;;16.40;1.00;;;;;;5111654;28;20212;-63
2022/07/24 03:44:08;;;;;;;6.27;5.53;;;16.40;1.00;;;;;;5112326;28;20200;-63
2022/07/24 03:46:34;;;;;;;6.83;5.10;;;16.40;1.00;;;;;;5112363;28;20260;-63
2022/07/24 03:49:01;;;;;;;6.73;4.93;;;16.40;1.00;;;;;;5115764;28;20211;-63
2022/07/24 03:51:28;;;;;;;6.50;4.73;;;16.40;1.00;;;;;;5116564;27;20260;-63
2022/07/24 03:53:55;;;;;;;12.10;8.80;;;16.40;1.00;;;;;;5117141;28;20265;-63
2022/07/24 03:56:23;;;;;;;9.00;5.87;;;16.40;1.00;;;;;;5116257;28;20883;-64
2022/07/24 03:58:50;;;;;;;10.77;7.03;;;16.40;1.00;;;;;;5115744;28;20623;-63
2022/07/24 04:01:17;;;;;;;7.47;5.43;;;16.50;1.00;;;;;;5115596;28;20252;-63
2022/07/24 04:03:43;;;;;;;5.23;4.67;;;16.50;1.00;;;;;;5115315;28;20731;-63
2022/07/24 04:06:10;;;;;;;6.53;5.33;;;16.60;1.00;;;;;;5114971;28;20832;-63
2022/07/24 04:08:36;;;;;;;8.03;5.30;;;16.60;1.00;;;;;;5115170;27;20223;-63
2022/07/24 04:11:03;;;;;;;6.40;4.80;;;16.60;1.00;;;;;;5115310;28;20284;-63
2022/07/24 04:13:31;;;;;;;6.13;4.73;;;16.70;1.00;;;;;;5115030;28;20212;-63
2022/07/24 04:15:59;;;;;;;5.57;4.57;;;16.70;1.00;;;;;;5115080;28;20199;-62
2022/07/24 04:18:26;;;;;;;6.50;5.50;;;16.80;1.00;;;;;;5115165;28;20748;-63
2022/07/24 04:20:53;;;;;;;5.73;5.13;;;16.80;1.00;;;;;;5115140;28;20273;-63
2022/07/24 04:23:20;;;;;;;6.33;5.27;;;16.90;1.00;;;;;;5115251;28;20195;-63
2022/07/24 04:25:48;;;;;;;7.80;5.23;;;16.90;1.00;;;;;;5115042;28;20696;-63
2022/07/24 04:28:15;;;;;;;6.03;5.40;;;17.00;1.00;;;;;;5114429;28;20231;-63
2022/07/24 04:30:43;;;;;;;5.87;4.57;;;17.00;1.00;;;;;;5114901;28;20277;-62
2022/07/24 04:33:10;;;;;;;5.50;5.00;;;17.10;1.00;;;;;;5114795;28;20236;-63
2022/07/24 04:35:36;;;;;;;7.83;5.13;;;17.20;1.00;;;;;;5114537;28;20719;-63
2022/07/24 04:38:03;;;;;;;5.30;4.70;;;17.20;1.00;;;;;;5114333;28;20200;-63
2022/07/24 04:40:30;;;;;;;9.40;5.43;;;17.30;1.00;;;;;;5114787;27;20288;-63
2022/07/24 04:42:56;;;;;;;5.80;5.20;;;17.30;1.00;;;;;;5114417;28;20598;-63
2022/07/24 04:45:23;;;;;;;6.63;5.23;;;17.20;1.00;;;;;;5115234;28;20208;-64
2022/07/24 04:47:51;;;;;;;5.17;4.67;;;17.30;1.00;;;;;;5114083;28;20276;-64
2022/07/24 04:50:18;;;;;;;10.23;5.93;;;17.30;1.00;;;;;;5114653;28;20228;-64
2022/07/24 04:52:45;;;;;;;5.87;5.27;;;17.30;1.00;;;;;;5114477;28;20249;-64
2022/07/24 04:55:12;;;;;;;7.00;5.77;;;17.30;1.00;;;;;;5114672;28;20199;-63
2022/07/24 04:57:39;;;;;;;5.77;5.17;;;17.40;1.00;;;;;;5114116;28;20204;-63
2022/07/24 05:00:08;;;;;;;6.13;5.43;;;17.40;1.00;;;;;;5112900;28;20708;-63
2022/07/24 05:02:35;;;;;;;6.33;4.87;;;17.50;1.00;;;;;;5114351;28;20204;-63
2022/07/24 05:05:03;;;;;;;5.33;4.83;;;17.50;1.00;;;;;;5114314;28;20239;-63
2022/07/24 05:07:30;;;;;;;6.30;4.83;;;17.60;1.00;;;;;;5113938;28;20219;-63
2022/07/24 05:09:57;;;;;;;6.87;5.53;;;17.70;1.00;;;;;;5114151;28;20265;-63
2022/07/24 05:12:24;;;;;;;8.77;5.77;;;17.60;1.00;;;;;;5114054;28;20208;-63
2022/07/24 05:14:50;;;;;;;5.43;4.77;;;17.70;1.00;;;;;;5113903;28;20215;-63
2022/07/24 05:17:17;;;;;;;6.87;4.80;;;17.80;1.00;;;;;;5113890;28;20200;-63
2022/07/24 05:19:44;;;;;;;5.57;4.80;;;17.90;1.00;;;;;;5113852;28;20231;-63
2022/07/24 05:22:12;;;;;;;5.87;5.03;;;17.90;1.00;;;;;;5113751;28;20204;-64
2022/07/24 05:24:39;;;;;;;7.40;5.33;;;18.00;1.00;;;;;;5113872;28;20203;-63
2022/07/24 05:27:05;;;;;;;6.83;4.63;;;18.00;1.00;;;;;;5113048;28;20216;-64
2022/07/24 05:29:32;;;;;;;5.57;4.77;;;18.10;1.00;;;;;;5113809;28;20231;-64
2022/07/24 05:31:58;;;;;;;5.43;4.83;;;18.10;1.00;;;;;;5113608;28;20237;-63
2022/07/24 05:34:25;;;;;;;8.93;5.10;;;18.20;1.00;;;;;;5113879;28;20253;-63
2022/07/24 05:36:52;;;;;;;5.13;4.63;;;18.30;1.00;;;;;;5113405;28;20208;-63
2022/07/24 05:39:21;;;;;;;6.60;4.43;;;18.30;1.00;;;;;;5113368;28;20280;-63
2022/07/24 05:41:47;;;;;;;5.93;5.07;;;18.40;1.00;;;;;;5113497;28;20212;-63
2022/07/24 05:44:14;;;;;;;5.60;4.83;;;18.60;1.00;;;;;;5113477;27;20203;-64
2022/07/24 05:46:41;;;;;;;7.43;4.43;;;18.60;1.00;;;;;;5113358;28;20211;-63
2022/07/24 05:49:07;;;;;;;7.57;4.77;;;18.70;99.90;;;;;;5113497;28;20223;-63
2022/07/24 05:51:34;;;;;;;5.70;4.53;;;18.70;99.90;;;;;;5113809;28;20218;-63
2022/07/24 05:54:02;;;;;;;5.60;4.53;;;18.80;99.90;;;;;;5113376;28;20207;-63
2022/07/24 05:56:31;;;;;;;5.83;5.03;;;18.90;1.00;;;;;;5112469;28;20212;-63
2022/07/24 05:58:58;;;;;;;6.80;4.33;;;18.90;99.90;;;;;;5113087;28;20248;-63
2022/07/24 06:01:24;;;;;;;5.00;4.40;;;18.90;99.90;;;;;;5113140;27;20265;-63
2022/07/24 06:03:51;;;;;;;4.77;4.07;;;19.00;99.90;;;;;;5113219;28;20203;-63
2022/07/24 06:06:18;;;;;;;6.00;5.17;;;19.00;99.90;;;;;;5112547;28;20203;-63
2022/07/24 06:08:45;;;;;;;5.53;4.20;;;19.00;99.90;;;;;;5112742;27;20227;-63
2022/07/24 06:11:11;;;;;;;6.63;4.50;;;19.10;99.90;;;;;;5112698;28;20219;-63
2022/07/24 06:13:39;;;;;;;6.47;4.37;;;19.30;99.90;;;;;;5112999;27;20256;-63
2022/07/24 06:16:06;;;;;;;5.73;4.40;;;19.30;99.90;;;;;;5112539;28;20638;-63
2022/07/24 06:18:33;;;;;;;5.63;4.27;;;19.40;99.90;;;;;;5112647;28;20211;-63
2022/07/24 06:21:00;;;;;;;4.73;3.90;;;19.40;99.90;;;;;;5112716;28;20234;-63
2022/07/24 06:23:26;;;;;;;6.87;4.47;;;19.60;99.90;;;;;;5112443;28;20211;-63
2022/07/24 06:25:53;;;;;;;5.23;4.43;;;19.70;99.90;;;;;;5112315;28;20662;-63
2022/07/24 06:28:20;;;;;;;5.83;4.37;;;19.80;92.50;;;;;;5112347;28;20223;-63
2022/07/24 06:30:48;;;;;;;4.57;4.13;;;19.90;61.40;;;;;;5112584;28;20313;-63
2022/07/24 06:33:14;;;;;;;7.13;4.40;;;19.90;76.50;;;;;;5112657;28;20207;-63
2022/07/24 06:35:41;;;;;;;7.40;4.20;;;20.00;47.20;;;;;;5112291;28;20696;-63
2022/07/24 06:38:09;;;;;;;5.13;4.23;;;20.10;18.70;;;;;;5111687;28;20611;-63
2022/07/24 06:40:37;;;;;;;6.07;4.47;;;20.20;10.30;;;;;;5112047;28;20250;-63
2022/07/24 06:43:04;;;;;;;4.33;3.90;;;20.30;8.80;;;;;;5112598;28;20235;-63
2022/07/24 06:45:32;;;;;;;4.60;4.00;;;20.30;1.00;;;;;;5112426;28;20200;-62
2022/07/24 06:48:00;;;;;;;6.17;3.67;;;20.50;1.00;;;;;;5111951;28;20219;-63
2022/07/24 06:50:27;;;;;;;4.80;4.30;;;20.50;1.00;;;;;;5112289;28;20227;-63
2022/07/24 06:52:53;;;;;;;5.43;4.10;;;20.60;1.00;;;;;;5112532;28;20619;-63
2022/07/24 06:55:20;;;;;;;8.13;4.87;;;20.60;1.00;;;;;;5112454;28;20692;-63
2022/07/24 06:57:47;;;;;;;7.17;4.47;;;20.70;1.00;;;;;;5112005;28;20200;-63
2022/07/24 07:00:14;;;;;;;6.10;3.90;;;20.90;1.00;;;;;;5112198;28;20782;-64
2022/07/24 07:02:41;;;;;;;5.97;4.00;;;21.00;1.00;;;;;;5112034;28;20238;-63
2022/07/24 07:05:10;;;;;;;7.03;4.10;;;21.20;1.00;;;;;;5112084;28;20208;-63
2022/07/24 07:07:37;;;;;;;5.70;4.00;;;21.30;1.00;;;;;;5111786;28;20216;-64
2022/07/24 07:10:04;;;;;;;5.20;4.13;;;21.40;1.00;;;;;;5112155;28;20314;-63
2022/07/24 07:12:31;;;;;;;5.93;3.97;;;21.60;1.00;;;;;;5111998;28;20203;-64
2022/07/24 07:14:59;;;;;;;4.70;3.90;;;21.70;1.00;;;;;;5111975;28;20226;-63
2022/07/24 07:17:26;;;;;;;4.43;3.87;;;21.80;1.00;;;;;;5111578;28;20290;-63
2022/07/24 07:19:52;;;;;;;4.90;3.80;;;21.90;1.00;;;;;;5111772;28;20371;-64
2022/07/24 07:22:20;;;;;;;5.17;3.70;;;22.00;1.00;;;;;;5113032;28;20214;-63
2022/07/24 07:24:47;;;;;;;5.13;4.00;;;22.20;1.00;;;;;;5116168;28;20211;-63
2022/07/24 07:27:14;;;;;;;4.13;3.73;;;22.30;1.00;;;;;;5115850;28;20203;-63
2022/07/24 07:29:40;;;;;;;5.20;4.40;;;22.40;1.00;;;;;;5116082;28;20590;-63
2022/07/24 07:32:07;;;;;;;4.37;3.97;;;22.50;1.00;;;;;;5115659;28;20207;-64
2022/07/24 07:34:34;;;;;;;4.80;4.10;;;22.60;1.00;;;;;;5115929;28;20584;-63
2022/07/24 07:37:00;;;;;;;4.80;3.83;;;22.70;1.00;;;;;;5115653;28;20204;-64
2022/07/24 07:39:28;;;;;;;4.53;4.00;;;22.60;1.00;;;;;;5115862;28;20227;-63
2022/07/24 07:41:55;;;;;;;5.97;4.07;;;22.70;1.00;;;;;;5115638;27;20609;-63
2022/07/24 07:44:22;;;;;;;8.83;4.10;;;22.90;1.00;;;;;;5115788;28;20677;-64
2022/07/24 07:46:48;;;;;;;3.70;3.40;;;22.90;1.00;;;;;;5115288;28;20207;-63
2022/07/24 07:49:15;;;;;;;10.10;4.60;;;23.10;99.90;;;;;;5115601;28;20318;-64
2022/07/24 07:51:42;;;;;;;6.97;3.83;;;23.30;1.00;;;;;;5116026;28;20256;-64
2022/07/24 07:54:08;;;;;;;5.37;4.40;;;23.50;1.00;;;;;;5115476;28;20203;-64
2022/07/24 07:56:36;;;;;;;8.43;4.50;;;23.70;1.00;;;;;;5115355;28;20200;-64
2022/07/24 07:59:03;;;;;;;7.83;3.90;;;23.90;1.00;;;;;;5115288;28;20203;-64
2022/07/24 08:01:30;;;;;;;7.13;4.20;;;24.00;99.90;;;;;;5115491;28;20211;-64
2022/07/24 08:03:56;;;;;;;5.53;4.10;;;24.20;99.90;;;;;;5115667;28;20272;-64
2022/07/24 08:06:23;;;;;;;4.93;4.43;;;24.40;99.90;;;;;;5115568;27;20245;-63
2022/07/24 08:08:50;;;;;;;7.10;4.23;;;24.40;99.90;;;;;;5115817;27;20631;-63
2022/07/24 08:11:16;;;;;;;5.33;4.00;;;24.30;99.90;;;;;;5115088;28;20268;-63
2022/07/24 08:13:44;;;;;;;4.77;4.03;;;24.40;99.90;;;;;;5115130;28;20203;-63
2022/07/24 08:16:11;;;;;;;5.70;4.80;;;24.60;99.90;;;;;;5114624;27;20355;-63
2022/07/24 08:18:38;;;;;;;7.43;4.60;;;24.60;99.90;;;;;;5115095;28;20208;-64
2022/07/24 08:21:05;;;;;;;4.80;4.33;;;24.80;99.90;;;;;;5114667;28;20219;-64
2022/07/24 08:23:31;;;;;;;4.80;4.30;;;24.90;99.90;;;;;;5114925;28;20264;-64
2022/07/24 08:25:58;;;;;;;6.53;4.60;;;25.10;99.90;;;;;;5114529;28;20208;-64
2022/07/24 08:28:25;;;;;;;4.70;4.20;;;25.00;99.90;;;;;;5114338;28;20220;-64
2022/07/24 08:30:53;;;;;;;6.40;4.57;;;25.00;99.90;;;;;;5114999;27;20223;-64
2022/07/24 08:33:20;;;;;;;6.50;5.00;;;25.00;99.90;;;;;;5114098;28;20252;-64
2022/07/24 08:35:47;;;;;;;6.60;4.83;;;25.10;99.90;;;;;;5113947;28;20696;-64
2022/07/24 08:38:14;;;;;;;7.60;4.37;;;25.10;99.90;;;;;;5114145;27;20273;-64
2022/07/24 08:40:41;;;;;;;6.23;4.47;;;25.10;99.90;;;;;;5114820;28;20636;-64
2022/07/24 08:43:09;;;;;;;4.80;4.30;;;25.20;99.90;;;;;;5114543;28;20217;-64
2022/07/24 08:45:38;;;;;;;5.40;4.40;;;25.20;99.90;;;;;;5114541;28;20207;-64
2022/07/24 08:48:08;;;;;;;7.67;4.30;;;25.30;99.90;;;;;;5114403;28;20203;-64
2022/07/24 08:50:36;;;;;;;5.60;4.50;;;25.50;99.90;;;;;;5114397;28;20224;-64
2022/07/24 08:53:04;;;;;;;6.77;4.40;;;25.50;99.90;;;;;;5108711;28;20199;-65
2022/07/24 08:55:31;;;;;;;6.40;5.33;;;25.60;99.90;;;;;;5106733;28;20717;-64
2022/07/24 08:57:58;;;;;;;8.17;5.23;;;25.60;99.90;;;;;;5113644;28;20222;-67
2022/07/24 09:00:25;;;;;;;9.10;4.87;;;25.70;99.90;;;;;;5114038;27;20224;-67
2022/07/24 09:02:52;;;;;;;6.97;5.30;;;25.50;99.90;;;;;;5113428;28;20689;-64
2022/07/24 09:05:20;;;;;;;6.27;4.93;;;25.50;99.90;;;;;;5113455;28;20689;-64
2022/07/24 09:07:47;;;;;;;9.60;5.10;;;25.70;99.90;;;;;;5113109;28;20608;-64
2022/07/24 09:10:16;;;;;;;7.47;5.10;;;25.70;99.90;;;;;;5113633;27;20296;-63
2022/07/24 09:12:45;;;;;;;6.97;5.50;;;25.70;99.90;;;;;;5113710;28;20290;-69
2022/07/24 09:15:13;;;;;;;9.37;5.17;;;25.70;99.90;;;;;;5113654;27;20215;-67
2022/07/24 09:17:49;;;;;;;7.77;5.37;;;25.80;99.90;;;;;;5113283;28;20576;-67
2022/07/24 09:20:15;;;;;;;7.77;5.27;;;25.70;99.90;;;;;;5113217;28;20749;-67
2022/07/24 09:22:44;;;;;;;6.40;5.30;;;25.80;99.90;;;;;;5113080;28;20200;-67
2022/07/24 09:25:14;;;;;;;6.37;5.20;;;26.00;99.90;;;;;;5113163;28;20588;-67
2022/07/24 09:27:45;;;;;;;7.13;5.40;;;26.20;99.90;;;;;;5112975;28;20227;-68
2022/07/24 09:30:23;;;;;;;5.90;5.30;;;26.20;99.90;;;;;;5112934;28;20227;-69
2022/07/24 09:32:53;;;;;;;6.43;5.20;;;26.30;99.90;;;;;;5113363;27;20211;-68
2022/07/24 09:35:23;;;;;;;6.97;4.83;;;26.30;99.90;;;;;;5113169;28;20211;-66
2022/07/24 09:37:55;;;;;;;6.10;5.30;;;26.40;99.90;;;;;;5112736;28;20208;-66
2022/07/24 09:40:28;;;;;;;6.47;5.43;;;26.30;99.90;;;;;;5113303;27;20236;-69
2022/07/24 09:43:12;;;;;;;6.23;5.57;;;26.40;99.90;;;;;;5112963;28;20208;-68
2022/07/24 09:45:56;;;;;;;8.03;4.97;;;26.50;99.90;;;;;;5111989;28;20207;-65
2022/07/24 09:48:25;;;;;;;10.10;5.77;;;26.70;99.90;;;;;;5112997;28;20678;-66
2022/07/24 09:50:54;;;;;;;7.23;5.33;;;26.80;99.90;;;;;;5112982;28;20234;-67
2022/07/24 09:53:24;;;;;;;7.50;5.33;;;26.80;99.90;;;;;;5112730;27;20204;-68
2022/07/24 09:55:59;;;;;;;6.33;5.27;;;26.80;99.90;;;;;;5112314;28;20214;-68
2022/07/24 09:58:26;;;;;;;7.30;5.70;;;26.90;99.90;;;;;;5112838;28;20242;-65
2022/07/24 10:00:55;;;;;;;6.77;5.50;;;26.80;99.90;;;;;;5112579;28;20237;-64
2022/07/24 10:03:26;;;;;;;8.67;5.40;;;26.80;99.90;;;;;;5112817;27;20200;-64
2022/07/24 10:05:56;;;;;;;5.80;5.10;;;27.00;99.90;;;;;;5111817;28;20234;-64
2022/07/24 10:08:24;;;;;;;8.00;4.93;;;26.80;99.90;;;;;;5112382;28;20219;-63
2022/07/24 10:10:51;;;;;;;7.03;5.43;;;27.10;99.90;;;;;;5112619;28;20219;-65
2022/07/24 10:13:18;;;;;;;7.47;5.20;;;27.00;99.90;;;;;;5112239;28;20243;-66
2022/07/24 10:15:55;;;;;;;7.23;5.20;;;27.20;99.90;;;;;;5112071;28;20210;-65
2022/07/24 10:18:24;;;;;;;6.53;5.80;;;27.20;99.90;;;;;;5112133;28;20752;-65
2022/07/24 10:21:06;;;;;;;9.00;5.80;;;27.30;99.90;;;;;;5111904;28;20234;-64
2022/07/24 10:23:47;;;;;;;6.67;5.03;;;27.20;99.90;;;;;;5112102;28;20239;-64
2022/07/24 10:26:25;;;;;;;7.53;5.40;;;27.20;99.90;;;;;;5111952;28;20218;-63
2022/07/24 10:29:00;;;;;;;6.47;5.00;;;27.20;99.90;;;;;;5111892;28;20210;-64
2022/07/24 10:31:27;;;;;;;5.27;4.40;;;27.10;99.90;;;;;;5112086;28;20260;-63
2022/07/24 10:33:57;;;;;;;6.90;4.90;;;27.20;99.90;;;;;;5112120;28;20204;-64
2022/07/24 10:36:30;;;;;;;8.43;4.73;;;27.20;99.90;;;;;;5111589;28;20340;-64
2022/07/24 10:39:03;;;;;;;6.80;4.80;;;27.40;99.90;;;;;;5112139;28;20204;-64
2022/07/24 10:41:31;;;;;;;6.13;4.60;;;27.60;99.90;;;;;;5111752;28;20204;-64
2022/07/24 10:44:17;;;;;;;6.57;4.93;;;27.70;99.90;;;;;;5111602;28;20268;-64
2022/07/24 10:47:00;;;;;;;8.10;5.40;;;27.80;99.90;;;;;;5111565;28;20203;-65
2022/07/24 10:49:57;;;;;;;8.17;5.00;;;27.80;99.90;;;;;;5111649;28;20230;-64
2022/07/24 10:52:26;;;;;;;5.40;4.47;;;27.80;99.90;;;;;;5111666;28;20203;-68
2022/07/24 10:55:31;;;;;;;5.53;4.60;;;27.90;99.90;;;;;;5111705;28;20203;-66
2022/07/24 10:58:01;;;;;;;7.87;5.10;;;28.00;99.90;;;;;;5110679;28;20472;-64
2022/07/24 11:00:32;;;;;;;7.67;5.07;;;27.90;99.90;;;;;;5111800;28;20238;-64
2022/07/24 11:03:01;;;;;;;6.43;4.37;;;27.90;99.90;;;;;;5111771;28;20211;-64
2022/07/24 11:05:31;;;;;;;8.60;5.47;;;28.00;99.90;;;;;;5111580;28;20643;-64
2022/07/24 11:08:33;;;;;;;7.27;5.33;;;28.00;99.90;;;;;;5111508;28;20204;-64
2022/07/24 11:11:16;;;;;;;6.80;5.10;;;27.90;99.90;;;;;;5111393;28;20227;-67
2022/07/24 11:13:54;;;;;;;6.40;4.93;;;28.10;99.90;;;;;;5111450;28;20206;-67
2022/07/24 11:16:26;;;;;;;6.83;5.13;;;28.10;99.90;;;;;;5111390;28;20658;-66
2022/07/24 11:19:28;;;;;;;5.27;4.70;;;28.00;99.90;;;;;;5111368;28;20218;-66
2022/07/24 11:22:10;;;;;;;6.07;5.23;;;28.00;99.90;;;;;;5048246;28;20296;-65
2022/07/24 11:24:41;;;;;;;10.13;5.70;;;28.00;99.90;;;;;;5105195;28;20199;-65
2022/07/24 11:27:18;;;;;;;7.83;5.10;;;27.90;99.90;;;;;;5111130;28;20752;-62
2022/07/24 11:29:44;;;;;;;7.80;5.80;;;27.80;99.90;;;;;;5111402;28;20636;-62
2022/07/24 11:32:14;;;;;;;8.53;6.30;;;27.80;99.90;;;;;;5111397;28;20237;-62
2022/07/24 11:34:45;;;;;;;9.87;6.07;;;27.80;99.90;;;;;;5111239;28;20208;-65
2022/07/24 11:37:12;;;;;;;9.23;6.27;;;28.10;99.90;;;;;;5111182;28;20248;-65
2022/07/24 11:39:41;;;;;;;9.87;5.27;;;28.00;99.90;;;;;;5110659;28;20232;-63
2022/07/24 11:42:11;;;;;;;13.70;8.40;;;28.30;99.90;;;;;;5111186;28;20249;-64
2022/07/24 11:44:40;;;;;;;7.57;5.47;;;28.20;99.90;;;;;;5111248;28;20211;-66
2022/07/24 11:47:10;;;;;;;7.67;5.07;;;28.30;99.90;;;;;;5110892;28;20673;-66
2022/07/24 11:49:42;;;;;;;8.97;7.17;;;28.40;99.90;;;;;;5111105;28;20228;-68
2022/07/24 11:52:14;;;;;;;7.50;5.47;;;28.40;99.90;;;;;;5111431;28;20742;-69
2022/07/24 11:54:42;;;;;;;7.50;5.60;;;28.40;99.90;;;;;;5111077;28;20207;-68
2022/07/24 11:57:19;;;;;;;11.53;6.30;;;28.30;99.90;;;;;;5110983;28;20242;-67
2022/07/24 11:59:48;;;;;;;9.37;6.93;;;28.50;99.90;;;;;;5111432;28;20310;-64
2022/07/24 12:02:15;;;;;;;16.33;8.83;;;28.70;99.90;;;;;;5111202;28;20588;-64
2022/07/24 12:04:43;;;;;;;7.53;6.30;;;28.80;99.90;;;;;;5111000;28;20685;-64
2022/07/24 12:07:12;;;;;;;7.67;5.00;;;28.90;99.90;;;;;;5110693;28;20207;-67
2022/07/24 12:09:45;;;;;;;7.43;4.97;;;28.80;99.90;;;;;;5113705;28;20227;-64
2022/07/24 12:12:25;;;;;;;6.50;4.65;;;28.90;99.90;;;;;;5115029;28;20298;-65
2022/07/24 12:14:53;;;;;;;6.77;4.97;;;28.80;99.90;;;;;;5114298;28;20208;-66
2022/07/24 12:17:21;;;;;;;6.00;4.20;;;28.60;99.90;;;;;;5114500;28;20252;-66
2022/07/24 12:19:55;;;;;;;5.53;4.30;;;28.80;99.90;;;;;;5113966;28;20729;-64
2022/07/24 12:22:24;;;;;;;7.13;5.30;;;28.70;99.90;;;;;;5114735;28;20586;-66
2022/07/24 12:24:52;;;;;;;8.00;5.77;;;28.60;99.90;;;;;;5114262;27;20208;-67
2022/07/24 12:27:40;;;;;;;6.93;4.70;;;28.50;99.90;;;;;;5114348;28;20199;-66
2022/07/24 12:30:22;;;;;;;6.27;5.10;;;28.40;99.90;;;;;;5114085;28;20602;-65
2022/07/24 12:33:00;;;;;;;7.93;4.83;;;28.40;99.90;;;;;;5114449;28;20203;-64
2022/07/24 12:35:28;;;;;;;8.50;5.83;;;28.60;99.90;;;;;;5113792;28;20268;-64
2022/07/24 12:37:56;;;;;;;7.83;5.83;;;28.70;99.90;;;;;;5113858;27;20207;-64
2022/07/24 12:40:35;;;;;;;5.60;4.77;;;28.70;99.90;;;;;;5113704;28;20277;-67
2022/07/24 12:43:08;;;;;;;10.13;5.00;;;28.80;99.90;;;;;;5113565;28;20556;-67
2022/07/24 12:45:35;;;;;;;7.68;5.28;;;29.00;99.90;;;;;;5112591;28;20200;-67
2022/07/24 12:48:19;;;;;;;6.55;5.03;;;29.00;99.90;;;;;;5113202;27;20231;-67
2022/07/24 12:51:04;;;;;;;6.32;4.72;;;29.20;99.90;;;;;;5113920;28;20227;-66
2022/07/24 12:53:33;;;;;;;7.22;5.10;;;29.40;99.90;;;;;;5113962;28;20257;-64
2022/07/24 12:56:21;;;;;;;5.88;4.80;;;29.40;99.90;;;;;;5113471;28;20272;-64
2022/07/24 12:58:55;;;;;;;7.43;5.13;;;29.50;99.90;;;;;;5108985;28;20284;-64